Pocatello, ID

2:35 AM MST on March 03, 2015 (GMT -0700)
APRSWXNET Chubbuck ID US | Change Station
CLOSE
Current Station
Personal Weather Station
Location: Chubbuck, ID
Elevation: 4464 ft
Nearby Weather Stations
Active Advisory: Winter Weather Advisory

Elev 4464 ft 42.92 °N, 112.47 °W | Updated 16 days ago

Snow
Snow
29 °F
Feels Like 17 °F
N
16
Wind Variable Wind from WSW
Gusts 24 mph

Today
High -- | Low -- °F
--% Chance of Precip.
Yesterday
High -- | Low -- °F
Precip. -- in
7:02 AM 6:21 PM
Waxing Gibbous, 95% visible
Pressure 29.74 in
Visibility 10.0 miles
Clouds Mostly Cloudy 8000 ft
Mostly Cloudy 11000 ft
Windchill 17 °F
Dew Point 25 °F
Humidity 83%
Rainfall 0.00 in
Snow Depth Not available.
UV 0 out of 12
Pollen 3.10 out of 12
Air Quality Not available.
Flu Activity Not available.
METAR KPIH 030853Z AUTO 23021G27KT 10SM BKN080 BKN110 01/M07 A2972 RMK AO2 PK WND 22027/0848 SLP069 T00111072 51008

More Conditions Fewer Conditions

Pressure 29.74 in
Visibility 10.0 miles
Clouds Mostly Cloudy 8000 ft
Mostly Cloudy 11000 ft
Windchill 17 °F
Dew Point 25 °F
Humidity 83%
Rainfall 0.00 in
Snow Depth Not available.
UV 0 out of 12
Pollen 3.10 out of 12
Air Quality Not available.
Flu Activity Not available.
METAR KPIH 030853Z AUTO 23021G27KT 10SM BKN080 BKN110 01/M07 A2972 RMK AO2 PK WND 22027/0848 SLP069 T00111072 51008

More Conditions Fewer Conditions

10-Day Weather Forecast

Almanac

Astronomy

Mar. 03, 2015 Rise Set
Actual Time
Civil Twilight
Nautical Twilight
Astronomical Twilight
Moon
Length of Visible Light
Length of Day
Tomorrow will be .
, % of the Moon is Illuminated

Today's Extremes

State Highs State Lows

Community

WunderPhotos

Upload Photos

1,802,075 photos uploaded!

WunderBlogs® & News

Nearby

Air Quality

  Air Quality AQ Index Pollutant
Not available.

Snow Depth

Station Depth Elevation

Earthquake Activity

City Distance Mag. Time & Date
Minimum magnitude displayed is 2.5.

Coastal Water Temperatures

Place Temperature

Nearby Weather Stations

Winter Weather Advisory
Statement as of 1:40 PM MST on March 02, 2015

... Winter Weather Advisory now in effect from 8 PM this evening
to 2 PM MST Tuesday...

The Winter Weather Advisory for snow and blowing snow which is now
in effect from 8 PM this evening to 2 PM MST Tuesday.

* Timing... snow will arrive around midnight and end around noon on
Tuesday.

* Main impact... 1 to 3 inches of snow... along with some blowing
and drifting snow... will make travel difficult.

* Locations include... Rexburg... Idaho
Falls... Shelley... Blackfoot... Pocatello... Chubbuck... and
American Falls.

* Other impacts... blowing snow can reduce visibility suddenly.

Precautionary/preparedness actions...

A Winter Weather Advisory for blowing snow means that
visibilities will be limited due to strong winds blowing snow
around. Use caution when traveling... especially in open areas.